Time;durP1;ratioP1;P1;durP2;ratioP2;P2;SDS_P1;SDS_P2;PMS_P1;PMS_P2;Temp;Humidity;BMP_temperature;BMP_pressure;BME280_temperature;BME280_humidity;BME280_pressure;Samples;Min_cycle;Max_cycle;Signal;HPM_P1;HPM_P2
2022/12/03 00:01:54;;;;;;;79.55;12.10;;;3.10;99.90;;;;;;5037748;28;20204;-86
2022/12/03 00:07:06;;;;;;;77.45;12.35;;;3.10;99.90;;;;;;5016516;28;20174;-85
2022/12/03 00:10:01;;;;;;;77.60;11.73;;;3.00;99.90;;;;;;5030521;28;20579;-85
2022/12/03 00:12:37;;;;;;;78.70;12.07;;;3.00;99.90;;;;;;5037630;28;20169;-85
2022/12/03 00:15:16;;;;;;;74.35;11.15;;;3.00;99.90;;;;;;5038058;28;20184;-86
2022/12/03 00:18:15;;;;;;;78.95;11.90;;;3.00;99.90;;;;;;5038365;28;20169;-86
2022/12/03 00:20:46;;;;;;;75.28;11.90;;;3.00;99.90;;;;;;5044599;28;20204;-87
2022/12/03 00:26:29;;;;;;;81.13;13.20;;;3.00;99.90;;;;;;5043732;28;20165;-87
2022/12/03 00:29:01;;;;;;;74.47;10.93;;;3.00;99.90;;;;;;5043252;28;20193;-87
2022/12/03 00:31:59;;;;;;;76.10;11.77;;;3.10;99.90;;;;;;5042822;28;20554;-87
2022/12/03 00:34:50;;;;;;;77.28;11.23;;;3.20;99.90;;;;;;5041845;28;20208;-87
2022/12/03 00:47:46;;;;;;;77.35;11.43;;;3.20;99.90;;;;;;5117202;23;20232;-88
2022/12/03 00:50:45;;;;;;;;;;;;;;;;;;;;;
2022/12/03 00:53:17;;;;;;;75.70;10.32;;;3.10;99.90;;;;;;5044861;28;20252;-87
2022/12/03 00:55:43;;;;;;;77.88;11.80;;;3.10;99.90;;;;;;5043734;28;20182;-87
2022/12/03 00:58:09;;;;;;;75.85;11.52;;;3.00;99.90;;;;;;5044879;28;20169;-87
2022/12/03 01:00:35;;;;;;;77.35;10.77;;;3.00;99.90;;;;;;5042983;28;20600;-87
2022/12/03 01:03:10;;;;;;;77.07;10.90;;;3.00;99.90;;;;;;5040415;28;20173;-87
2022/12/03 01:05:44;;;;;;;73.57;10.20;;;3.00;99.90;;;;;;5044563;28;20180;-87
2022/12/03 01:08:13;;;;;;;74.93;11.00;;;3.00;99.90;;;;;;5045274;28;20246;-87
2022/12/03 01:10:38;;;;;;;74.63;10.25;;;3.00;99.90;;;;;;5042523;28;20227;-86
2022/12/03 01:13:04;;;;;;;73.90;10.20;;;3.00;99.90;;;;;;5034731;28;20577;-86
2022/12/03 01:15:32;;;;;;;76.60;11.60;;;3.00;99.90;;;;;;5035054;28;20204;-86
2022/12/03 01:17:58;;;;;;;76.72;11.68;;;3.10;99.90;;;;;;5035898;28;20169;-86
2022/12/03 01:20:37;;;;;;;74.83;10.50;;;3.00;99.90;;;;;;5036126;28;20182;-86
2022/12/03 01:23:06;;;;;;;77.35;12.02;;;3.00;99.90;;;;;;5034601;28;20407;-86
2022/12/03 01:25:39;;;;;;;73.20;10.00;;;3.10;99.90;;;;;;5034787;28;20558;-86
2022/12/03 01:28:05;;;;;;;73.30;10.15;;;3.10;99.90;;;;;;5036436;28;20238;-86
2022/12/03 01:32:15;;;;;;;75.40;10.50;;;3.10;99.90;;;;;;5033925;28;20283;-85
2022/12/03 01:37:14;;;;;;;74.70;10.63;;;3.20;99.90;;;;;;5036540;28;20574;-86
2022/12/03 01:39:26;;;;;;;72.40;9.23;;;3.30;99.90;;;;;;5032919;28;20220;-86
2022/12/03 01:41:53;;;;;;;76.55;11.55;;;3.10;99.90;;;;;;5033960;28;20649;-86
2022/12/03 01:44:24;;;;;;;72.65;9.63;;;3.10;99.90;;;;;;5034845;28;20609;-86
2022/12/03 01:46:55;;;;;;;75.43;9.88;;;3.20;99.90;;;;;;5034579;28;20173;-86
2022/12/03 01:49:33;;;;;;;75.18;10.10;;;3.10;99.90;;;;;;5035917;28;20189;-87
2022/12/03 01:51:59;;;;;;;74.10;9.98;;;3.20;99.90;;;;;;5047076;28;20164;-87
2022/12/03 01:54:47;;;;;;;74.72;12.10;;;3.20;99.90;;;;;;5045022;28;20204;-87
2022/12/03 01:57:30;;;;;;;77.30;9.98;;;3.10;99.90;;;;;;5045233;28;20153;-87
2022/12/03 01:59:57;;;;;;;73.22;10.15;;;3.10;99.90;;;;;;5043914;28;20554;-86
2022/12/03 02:02:37;;;;;;;76.22;10.77;;;3.20;99.90;;;;;;5044688;28;20169;-87
2022/12/03 02:05:16;;;;;;;73.60;10.35;;;3.20;99.90;;;;;;5044906;28;20177;-86
2022/12/03 02:07:42;;;;;;;75.65;9.40;;;3.20;99.90;;;;;;5044080;28;20164;-87
2022/12/03 02:10:11;;;;;;;73.53;9.87;;;3.20;99.90;;;;;;5043272;28;20659;-87
2022/12/03 02:13:08;;;;;;;72.70;9.68;;;3.20;99.90;;;;;;5043926;28;20407;-87
2022/12/03 02:15:39;;;;;;;73.97;9.68;;;3.20;99.90;;;;;;5044809;28;20237;-87
2022/12/03 02:18:20;;;;;;;73.45;10.73;;;3.20;99.90;;;;;;5043731;28;20165;-87
2022/12/03 02:21:09;;;;;;;73.88;10.07;;;3.20;99.90;;;;;;5043667;28;20189;-87
2022/12/03 02:23:56;;;;;;;75.40;10.52;;;3.20;99.90;;;;;;5045222;28;20150;-87
2022/12/03 02:27:10;;;;;;;74.72;9.98;;;3.30;99.90;;;;;;5043568;28;20566;-86
2022/12/03 02:29:21;;;;;;;73.68;9.75;;;3.20;99.90;;;;;;5039831;28;20287;-87
2022/12/03 02:31:52;;;;;;;73.22;10.30;;;3.10;99.90;;;;;;5038703;28;20600;-86
2022/12/03 02:34:47;;;;;;;77.03;9.80;;;3.10;99.90;;;;;;5036143;28;20166;-86
2022/12/03 02:37:19;;;;;;;75.63;10.18;;;3.20;99.90;;;;;;5037235;28;20574;-86
2022/12/03 02:39:56;;;;;;;83.78;9.77;;;3.20;99.90;;;;;;5036487;28;20291;-86
2022/12/03 02:42:34;;;;;;;76.13;10.20;;;3.30;99.90;;;;;;5036742;28;20574;-86
2022/12/03 02:45:22;;;;;;;74.47;10.05;;;3.30;99.90;;;;;;5035806;28;20157;-86
2022/12/03 02:48:26;;;;;;;73.40;9.70;;;3.40;99.90;;;;;;5034961;28;20193;-86
2022/12/03 02:51:07;;;;;;;75.70;10.40;;;3.30;99.90;;;;;;5035974;28;20613;-86
2022/12/03 02:53:52;;;;;;;71.38;9.60;;;3.40;99.90;;;;;;5035170;28;20177;-86
2022/12/03 02:56:30;;;;;;;76.75;10.52;;;3.30;99.90;;;;;;5039348;28;20173;-86
2022/12/03 02:59:02;;;;;;;73.55;10.50;;;3.30;99.90;;;;;;5039358;28;20565;-86
2022/12/03 03:01:31;;;;;;;72.20;9.55;;;3.20;99.90;;;;;;5039293;28;20195;-86
2022/12/03 03:03:58;;;;;;;76.40;10.98;;;3.30;99.90;;;;;;5038059;28;20661;-86
2022/12/03 03:06:26;;;;;;;72.35;9.70;;;3.30;99.90;;;;;;5039359;28;20165;-86
2022/12/03 03:08:55;;;;;;;74.35;9.88;;;3.30;99.90;;;;;;5038926;28;20181;-86
2022/12/03 03:11:21;;;;;;;75.60;10.27;;;3.30;99.90;;;;;;5039460;28;20184;-86
2022/12/03 03:14:05;;;;;;;78.37;11.87;;;3.20;99.90;;;;;;5037719;28;20550;-86
2022/12/03 03:16:33;;;;;;;75.22;9.50;;;3.30;99.90;;;;;;5038724;28;20483;-86
2022/12/03 03:19:02;;;;;;;84.78;11.20;;;3.30;99.90;;;;;;5039159;28;20165;-86
2022/12/03 03:21:28;;;;;;;75.47;11.63;;;3.30;99.90;;;;;;5045768;28;20216;-87
2022/12/03 03:24:11;;;;;;;75.90;10.30;;;3.30;99.90;;;;;;5047176;28;20165;-87
2022/12/03 03:26:42;;;;;;;73.72;9.70;;;3.30;99.90;;;;;;5046129;28;20486;-87
2022/12/03 03:29:11;;;;;;;77.53;10.90;;;3.20;99.90;;;;;;5046929;28;20193;-87
2022/12/03 03:31:38;;;;;;;75.20;11.18;;;3.20;99.90;;;;;;5045328;28;20268;-87
2022/12/03 03:34:16;;;;;;;73.70;10.70;;;3.20;99.90;;;;;;5047269;28;20168;-87
2022/12/03 03:36:43;;;;;;;78.07;12.07;;;3.30;99.90;;;;;;5046050;28;20244;-87
2022/12/03 03:39:15;;;;;;;76.70;10.98;;;3.20;99.90;;;;;;5173860;22;20190;-87
2022/12/03 03:41:43;;;;;;;73.32;10.13;;;3.20;99.90;;;;;;5133344;22;20224;-87
2022/12/03 03:44:41;;;;;;;78.25;12.15;;;3.20;99.90;;;;;;5043720;28;20204;-87
2022/12/03 03:47:12;;;;;;;77.47;11.23;;;3.20;99.90;;;;;;5044889;28;20161;-87
2022/12/03 03:49:38;;;;;;;82.10;10.90;;;3.20;99.90;;;;;;5044179;28;20181;-87
2022/12/03 03:52:04;;;;;;;74.47;10.07;;;3.20;99.90;;;;;;5043664;28;20575;-87
2022/12/03 03:54:32;;;;;;;81.63;12.30;;;3.20;99.90;;;;;;5043208;28;20905;-87
2022/12/03 03:57:21;;;;;;;83.28;11.82;;;3.20;99.90;;;;;;5044532;28;20165;-87
2022/12/03 03:59:56;;;;;;;81.53;11.90;;;3.10;99.90;;;;;;5043008;28;20193;-86
2022/12/03 04:02:24;;;;;;;77.03;10.73;;;3.20;99.90;;;;;;5038289;28;20545;-85
2022/12/03 04:04:56;;;;;;;77.32;11.73;;;3.20;99.90;;;;;;5037999;28;20171;-86
2022/12/03 04:07:28;;;;;;;79.78;12.15;;;3.20;99.90;;;;;;5038827;28;20177;-85
2022/12/03 04:09:57;;;;;;;78.70;12.10;;;3.20;99.90;;;;;;5038940;28;20618;-86
2022/12/03 04:15:10;;;;;;;76.05;11.80;;;3.10;99.90;;;;;;5040248;28;20161;-85
2022/12/03 04:20:37;;;;;;;79.93;11.90;;;3.10;99.90;;;;;;5039157;28;20188;-86
2022/12/03 04:23:04;;;;;;;78.13;11.95;;;3.10;99.90;;;;;;5039216;28;20161;-85
2022/12/03 04:36:39;;;;;;;80.85;12.38;;;3.10;99.90;;;;;;5038949;28;20522;-85
2022/12/03 04:39:05;;;;;;;77.27;12.60;;;3.10;99.90;;;;;;5037460;28;20168;-85
2022/12/03 04:41:30;;;;;;;81.00;13.70;;;3.10;99.90;;;;;;5037665;28;20215;-85
2022/12/03 04:46:40;;;;;;;79.55;12.30;;;3.10;99.90;;;;;;5038827;28;20202;-85
2022/12/03 04:49:06;;;;;;;79.37;13.43;;;3.00;99.90;;;;;;5037640;28;20257;-85
2022/12/03 04:51:31;;;;;;;82.67;11.53;;;3.10;99.90;;;;;;5042277;28;20181;-86
2022/12/03 04:53:57;;;;;;;82.70;12.93;;;3.10;99.90;;;;;;5044993;28;20172;-86
2022/12/03 04:56:22;;;;;;;80.00;12.40;;;3.10;99.90;;;;;;5043514;28;20252;-86
2022/12/03 04:58:48;;;;;;;80.27;12.93;;;3.10;99.90;;;;;;5044833;28;20223;-87
2022/12/03 05:01:14;;;;;;;81.00;13.33;;;3.10;99.90;;;;;;5043452;28;20216;-86
2022/12/03 05:03:40;;;;;;;81.53;13.03;;;3.10;99.90;;;;;;5043021;28;20165;-87
2022/12/03 05:06:06;;;;;;;78.57;11.17;;;3.10;99.90;;;;;;5044555;28;20161;-86
2022/12/03 05:08:32;;;;;;;84.13;13.47;;;3.00;99.90;;;;;;5044609;28;20432;-87
2022/12/03 05:10:57;;;;;;;76.87;11.40;;;3.00;99.90;;;;;;5043763;28;20439;-86
2022/12/03 05:13:23;;;;;;;80.77;11.40;;;3.10;99.90;;;;;;5043952;28;20848;-86
2022/12/03 05:15:48;;;;;;;76.60;10.50;;;3.00;99.90;;;;;;5044061;28;20653;-87
2022/12/03 05:18:14;;;;;;;78.07;11.67;;;3.00;99.90;;;;;;5042687;28;20173;-86
2022/12/03 05:20:40;;;;;;;84.60;13.27;;;3.00;99.90;;;;;;5042775;28;20193;-86
2022/12/03 05:23:05;;;;;;;74.07;11.30;;;3.00;99.90;;;;;;5042709;28;20165;-86
2022/12/03 05:25:31;;;;;;;81.10;13.07;;;2.90;99.90;;;;;;5044023;28;20196;-87
2022/12/03 05:27:57;;;;;;;78.07;10.17;;;3.00;99.90;;;;;;5044652;28;20432;-86
2022/12/03 05:30:22;;;;;;;80.00;13.03;;;3.00;99.90;;;;;;5038853;28;20211;-85
2022/12/03 05:32:48;;;;;;;75.77;11.27;;;3.00;99.90;;;;;;5038020;28;20169;-85
2022/12/03 05:35:14;;;;;;;79.10;12.30;;;3.00;99.90;;;;;;5037066;28;20631;-85
2022/12/03 05:37:40;;;;;;;78.67;12.00;;;3.10;99.90;;;;;;5037556;28;20169;-85
2022/12/03 05:40:06;;;;;;;78.40;11.10;;;3.00;99.90;;;;;;5037750;28;20813;-85
2022/12/03 05:45:28;;;;;;;80.68;11.50;;;3.10;99.90;;;;;;5040360;28;20157;-85
2022/12/03 05:47:55;;;;;;;81.05;12.45;;;3.10;99.90;;;;;;5039984;28;20157;-85
2022/12/03 05:50:24;;;;;;;78.95;12.57;;;3.00;99.90;;;;;;5038384;28;20185;-86
2022/12/03 05:52:49;;;;;;;80.93;11.60;;;3.00;99.90;;;;;;5040085;28;20665;-86
2022/12/03 05:55:16;;;;;;;78.97;12.23;;;3.10;99.90;;;;;;5111304;22;20245;-84
2022/12/03 05:57:42;;;;;;;77.35;12.40;;;3.00;99.90;;;;;;5040523;28;20470;-84
2022/12/03 06:00:13;;;;;;;81.53;12.93;;;3.00;99.90;;;;;;5042348;28;20650;-84
2022/12/03 06:02:39;;;;;;;95.95;12.20;;;3.00;99.90;;;;;;5041082;28;20169;-84
2022/12/03 06:05:05;;;;;;;77.80;11.60;;;3.10;99.90;;;;;;5042319;28;20202;-84
2022/12/03 06:07:31;;;;;;;79.68;12.50;;;3.10;99.90;;;;;;5042468;28;20180;-84
2022/12/03 06:09:57;;;;;;;78.07;11.77;;;3.10;99.90;;;;;;5040724;28;20234;-84
2022/12/03 06:12:22;;;;;;;74.87;10.50;;;3.00;99.90;;;;;;5042846;28;20158;-84
2022/12/03 06:14:48;;;;;;;78.57;12.80;;;3.00;99.90;;;;;;5041911;28;20172;-84
2022/12/03 06:17:14;;;;;;;76.87;11.50;;;3.10;99.90;;;;;;5041886;28;20519;-84
2022/12/03 06:19:39;;;;;;;79.30;11.90;;;3.10;99.90;;;;;;5041989;28;20162;-84
2022/12/03 06:22:05;;;;;;;77.20;11.93;;;3.10;99.90;;;;;;5041808;28;20222;-84
2022/12/03 06:24:31;;;;;;;76.20;10.03;;;3.00;99.90;;;;;;5041124;28;20374;-84
2022/12/03 06:26:56;;;;;;;75.97;10.63;;;3.00;99.90;;;;;;5042509;28;20165;-84
2022/12/03 06:29:22;;;;;;;78.47;11.40;;;2.90;99.90;;;;;;5045095;28;20193;-84
2022/12/03 06:31:47;;;;;;;77.00;10.80;;;2.90;99.90;;;;;;5046152;28;20181;-84
2022/12/03 06:34:13;;;;;;;76.93;11.00;;;2.90;99.90;;;;;;5044865;28;20171;-84
2022/12/03 06:36:39;;;;;;;76.03;11.77;;;3.00;99.90;;;;;;5046272;28;20166;-84
2022/12/03 06:39:04;;;;;;;75.27;11.87;;;3.00;99.90;;;;;;5045805;28;20197;-84
2022/12/03 06:41:30;;;;;;;79.30;11.47;;;3.00;99.90;;;;;;5046081;28;20204;-84
2022/12/03 06:43:56;;;;;;;77.50;12.97;;;3.00;99.90;;;;;;5046193;28;20174;-84
2022/12/03 06:46:21;;;;;;;79.07;12.00;;;3.10;99.90;;;;;;5046090;28;20173;-84
2022/12/03 06:48:47;;;;;;;78.30;10.27;;;3.10;99.90;;;;;;5045121;28;20205;-84
2022/12/03 06:51:13;;;;;;;75.17;11.33;;;3.20;99.90;;;;;;5045708;28;20249;-84
2022/12/03 06:53:38;;;;;;;76.17;11.53;;;3.30;99.90;;;;;;5046382;28;20157;-84
2022/12/03 06:56:04;;;;;;;75.97;10.10;;;3.20;99.90;;;;;;5045205;28;20550;-84
2022/12/03 06:58:30;;;;;;;76.05;10.45;;;3.30;99.90;;;;;;5045234;28;20170;-84
2022/12/03 07:00:55;;;;;;;74.70;11.57;;;3.30;99.90;;;;;;5045816;28;20193;-84
2022/12/03 07:03:21;;;;;;;81.17;11.77;;;3.20;99.90;;;;;;5046097;28;20176;-84
2022/12/03 07:05:47;;;;;;;81.83;11.10;;;3.10;99.90;;;;;;5045978;28;20176;-84
2022/12/03 07:08:13;;;;;;;75.73;9.53;;;3.10;99.90;;;;;;5045274;28;20950;-84
2022/12/03 07:10:38;;;;;;;77.40;9.73;;;3.20;99.90;;;;;;5045757;28;20185;-84
2022/12/03 07:13:04;;;;;;;75.20;9.67;;;3.30;99.90;;;;;;5043954;28;20172;-84
2022/12/03 07:15:30;;;;;;;77.83;11.00;;;3.30;99.90;;;;;;5045871;28;20161;-84
2022/12/03 07:17:55;;;;;;;77.60;11.20;;;3.20;99.90;;;;;;5043940;28;20172;-84
2022/12/03 07:20:21;;;;;;;73.60;9.87;;;3.30;99.90;;;;;;5045309;28;20209;-84
2022/12/03 07:22:47;;;;;;;82.53;11.80;;;3.30;99.90;;;;;;5044263;28;20165;-84
2022/12/03 07:25:13;;;;;;;76.00;10.17;;;3.30;99.90;;;;;;5043625;28;20400;-84
2022/12/03 07:27:39;;;;;;;77.80;12.43;;;3.20;99.90;;;;;;5044305;28;20168;-83
2022/12/03 07:30:06;;;;;;;81.00;11.20;;;3.10;99.90;;;;;;5045701;28;20621;-84
2022/12/03 07:32:32;;;;;;;77.28;11.98;;;3.10;99.90;;;;;;5043691;28;20412;-84
2022/12/03 07:34:58;;;;;;;80.20;12.93;;;3.10;99.90;;;;;;5045363;28;20169;-84
2022/12/03 07:37:23;;;;;;;79.15;13.10;;;3.20;99.90;;;;;;5044251;28;20161;-84
2022/12/03 07:39:51;;;;;;;76.77;12.53;;;3.10;99.90;;;;;;5043851;28;20181;-84
2022/12/03 07:42:16;;;;;;;76.30;12.13;;;3.20;99.90;;;;;;5045242;28;20168;-84
2022/12/03 07:44:42;;;;;;;77.37;10.70;;;3.20;99.90;;;;;;5043638;28;20165;-84
2022/12/03 07:47:08;;;;;;;79.63;13.10;;;3.10;99.90;;;;;;5044759;28;20166;-83
2022/12/03 07:49:33;;;;;;;83.23;12.60;;;3.20;99.90;;;;;;5044518;28;20193;-83
2022/12/03 07:51:59;;;;;;;79.43;13.07;;;3.30;99.90;;;;;;5044838;28;20248;-84
2022/12/03 07:54:26;;;;;;;89.43;11.97;;;3.40;99.90;;;;;;5044766;28;20161;-84
2022/12/03 07:56:52;;;;;;;78.72;10.98;;;3.40;99.90;;;;;;5043427;28;20185;-84
2022/12/03 07:59:18;;;;;;;77.57;12.35;;;3.40;99.90;;;;;;5045446;28;20507;-84
2022/12/03 08:01:44;;;;;;;78.45;11.45;;;3.40;99.90;;;;;;5044504;28;20185;-84
2022/12/03 08:04:13;;;;;;;77.43;10.32;;;3.50;99.90;;;;;;5043698;28;20165;-84
2022/12/03 08:06:39;;;;;;;74.28;11.77;;;3.60;99.90;;;;;;5044236;28;20252;-84
2022/12/03 08:09:05;;;;;;;80.03;11.70;;;3.50;99.90;;;;;;5043475;28;20200;-84
2022/12/03 08:11:31;;;;;;;78.50;11.10;;;3.50;99.90;;;;;;5041030;28;20189;-84
2022/12/03 08:13:58;;;;;;;77.50;12.27;;;3.50;99.90;;;;;;5044529;28;20462;-84
2022/12/03 08:16:24;;;;;;;80.63;12.27;;;3.50;99.90;;;;;;5044820;28;20539;-84
2022/12/03 08:18:56;;;;;;;82.03;11.70;;;3.50;99.90;;;;;;5044101;28;20239;-84
2022/12/03 08:21:22;;;;;;;76.40;11.88;;;3.40;99.90;;;;;;5043183;28;20243;-84
2022/12/03 08:23:47;;;;;;;76.60;11.43;;;3.30;99.90;;;;;;5045755;28;20174;-84
2022/12/03 08:26:19;;;;;;;84.90;12.50;;;3.40;99.90;;;;;;5043405;28;20198;-84
2022/12/03 08:28:49;;;;;;;75.95;10.68;;;3.50;99.90;;;;;;5044227;28;20200;-84
2022/12/03 08:31:22;;;;;;;77.32;11.57;;;3.40;99.90;;;;;;5044016;28;20182;-84
2022/12/03 08:33:54;;;;;;;76.28;10.68;;;3.30;99.90;;;;;;5044493;28;20154;-84
2022/12/03 08:36:24;;;;;;;76.40;11.13;;;3.30;99.90;;;;;;5043787;28;20207;-84
2022/12/03 08:38:56;;;;;;;76.25;12.07;;;3.20;99.90;;;;;;5044604;28;20530;-84
2022/12/03 08:44:25;;;;;;;80.57;12.02;;;3.30;99.90;;;;;;5045303;28;20641;-84
2022/12/03 08:47:15;;;;;;;77.22;10.55;;;3.30;99.90;;;;;;5044109;28;20165;-84
2022/12/03 08:49:44;;;;;;;80.93;11.75;;;3.30;99.90;;;;;;5044286;28;20209;-86
2022/12/03 08:52:17;;;;;;;79.35;12.00;;;3.30;99.90;;;;;;5044211;28;20157;-86
2022/12/03 08:54:53;;;;;;;79.10;12.00;;;3.20;99.90;;;;;;5044372;28;20236;-86
2022/12/03 08:57:31;;;;;;;75.75;10.50;;;3.30;99.90;;;;;;5043952;28;20177;-85
2022/12/03 09:00:02;;;;;;;81.32;12.65;;;3.10;99.90;;;;;;5044145;28;20185;-85
2022/12/03 09:02:35;;;;;;;81.55;10.65;;;3.00;99.90;;;;;;5044787;28;20218;-85
2022/12/03 09:05:36;;;;;;;75.43;10.88;;;3.10;99.90;;;;;;5045263;28;20232;-85
2022/12/03 09:08:01;;;;;;;77.32;11.32;;;3.10;99.90;;;;;;5044043;28;20181;-85
2022/12/03 09:10:27;;;;;;;80.80;12.17;;;3.10;99.90;;;;;;5043310;28;20185;-85
2022/12/03 09:13:02;;;;;;;77.73;11.40;;;3.20;99.90;;;;;;5044305;28;20165;-85
2022/12/03 09:15:27;;;;;;;77.82;11.77;;;3.20;99.90;;;;;;5043275;28;20187;-85
2022/12/03 09:17:53;;;;;;;78.70;12.00;;;3.10;99.90;;;;;;5042571;28;20169;-85
2022/12/03 09:20:19;;;;;;;81.87;11.40;;;3.10;99.90;;;;;;5044379;28;20185;-85
2022/12/03 09:22:44;;;;;;;75.30;11.40;;;3.10;99.90;;;;;;5042714;28;20449;-85
2022/12/03 09:25:10;;;;;;;75.37;11.17;;;3.10;99.90;;;;;;5044394;28;20161;-85
2022/12/03 09:27:36;;;;;;;74.37;11.30;;;3.20;99.90;;;;;;5044187;28;20201;-85
2022/12/03 09:30:02;;;;;;;74.40;11.33;;;3.20;99.90;;;;;;5045071;28;20197;-85
2022/12/03 09:32:28;;;;;;;77.95;10.63;;;3.30;99.90;;;;;;5043514;28;20173;-85
2022/12/03 09:34:56;;;;;;;76.90;11.37;;;3.40;99.90;;;;;;5043254;28;20265;-85
2022/12/03 09:37:22;;;;;;;77.93;10.05;;;3.40;99.90;;;;;;5044087;28;20161;-85
2022/12/03 09:39:48;;;;;;;79.33;11.90;;;3.40;99.90;;;;;;5043931;28;20211;-85
2022/12/03 09:42:14;;;;;;;79.30;12.50;;;3.40;99.90;;;;;;5044731;28;20207;-85
2022/12/03 09:44:40;;;;;;;78.40;11.93;;;3.40;99.90;;;;;;5042996;28;20418;-85
2022/12/03 09:47:06;;;;;;;78.13;11.32;;;3.40;99.90;;;;;;5042924;28;20201;-85
2022/12/03 09:49:36;;;;;;;74.57;10.38;;;3.60;99.90;;;;;;5043399;28;20188;-85
2022/12/03 09:52:04;;;;;;;75.38;10.90;;;3.60;99.90;;;;;;5044108;28;20177;-85
2022/12/03 09:54:31;;;;;;;75.55;11.32;;;3.60;99.90;;;;;;5044249;28;20692;-85
2022/12/03 09:56:59;;;;;;;74.78;10.60;;;3.50;99.90;;;;;;5043210;28;20180;-85
2022/12/03 09:59:32;;;;;;;76.20;12.15;;;3.40;99.90;;;;;;5041914;28;20224;-84
2022/12/03 10:02:00;;;;;;;76.70;10.43;;;3.50;99.90;;;;;;5042138;28;20198;-85
2022/12/03 10:04:27;;;;;;;77.95;11.55;;;3.60;99.90;;;;;;5046270;28;20168;-85
2022/12/03 10:06:54;;;;;;;77.95;12.02;;;3.60;99.90;;;;;;5046797;28;20164;-85
2022/12/03 10:09:27;;;;;;;78.40;12.32;;;3.70;99.90;;;;;;5047000;28;20524;-85
2022/12/03 10:11:54;;;;;;;77.78;11.55;;;3.60;99.90;;;;;;5047380;28;20149;-85
2022/12/03 10:14:20;;;;;;;76.30;11.35;;;3.70;99.90;;;;;;5045696;28;20635;-85
2022/12/03 10:16:46;;;;;;;77.33;12.37;;;3.70;99.90;;;;;;5044945;28;20199;-84
2022/12/03 10:19:30;;;;;;;78.60;10.57;;;3.70;99.90;;;;;;5046089;28;20248;-85
2022/12/03 10:21:57;;;;;;;79.38;11.55;;;3.60;99.90;;;;;;5046138;28;20426;-85
2022/12/03 10:24:28;;;;;;;78.25;12.13;;;3.60;99.90;;;;;;5046634;28;20220;-85
2022/12/03 10:26:56;;;;;;;80.45;11.70;;;3.50;99.90;;;;;;5047564;28;20150;-85
2022/12/03 10:29:31;;;;;;;79.85;12.15;;;3.50;99.90;;;;;;5046055;28;20228;-85
2022/12/03 10:31:58;;;;;;;76.85;11.77;;;3.60;99.90;;;;;;5045479;28;20167;-85
2022/12/03 10:34:33;;;;;;;80.95;13.00;;;3.50;99.90;;;;;;5047747;28;20172;-85
2022/12/03 10:37:19;;;;;;;78.13;12.13;;;3.50;99.90;;;;;;5048537;28;20615;-85
2022/12/03 10:39:58;;;;;;;77.57;11.57;;;3.60;99.90;;;;;;5046567;28;20173;-85
2022/12/03 10:42:32;;;;;;;77.95;12.07;;;3.60;99.90;;;;;;5046776;28;20538;-85
2022/12/03 10:45:19;;;;;;;77.55;11.70;;;3.60;99.90;;;;;;5046197;28;20643;-85
2022/12/03 10:48:16;;;;;;;81.65;13.35;;;3.70;99.90;;;;;;5047563;28;20264;-86
2022/12/03 10:51:02;;;;;;;78.03;11.80;;;3.70;99.90;;;;;;5062078;22;20216;-85
2022/12/03 10:53:29;;;;;;;75.82;11.73;;;3.70;99.90;;;;;;5065318;28;20168;-85
2022/12/03 10:56:00;;;;;;;75.07;10.35;;;3.70;99.90;;;;;;5065952;28;20165;-85
2022/12/03 10:58:28;;;;;;;76.97;11.13;;;3.70;99.90;;;;;;5066892;28;20237;-85
2022/12/03 11:00:56;;;;;;;77.32;12.02;;;3.70;99.90;;;;;;5066919;28;20187;-84
2022/12/03 11:03:27;;;;;;;76.22;12.73;;;3.70;99.90;;;;;;5067167;28;20189;-85
2022/12/03 11:05:54;;;;;;;77.25;13.18;;;3.80;99.90;;;;;;5067247;28;20191;-85
2022/12/03 11:08:33;;;;;;;76.93;12.10;;;3.80;99.90;;;;;;5066567;28;20444;-85
2022/12/03 11:11:05;;;;;;;79.38;12.65;;;3.80;99.90;;;;;;5067472;28;20214;-85
2022/12/03 11:13:34;;;;;;;76.25;12.43;;;3.70;99.90;;;;;;5065721;28;20825;-85
2022/12/03 11:16:01;;;;;;;77.28;11.90;;;3.70;99.90;;;;;;5065293;28;20168;-85
2022/12/03 11:18:50;;;;;;;79.13;14.23;;;3.80;99.90;;;;;;5065890;28;20228;-85
2022/12/03 11:21:15;;;;;;;79.20;12.43;;;3.70;99.90;;;;;;5062060;28;20728;-85
2022/12/03 11:23:44;;;;;;;80.60;13.23;;;3.70;99.90;;;;;;5065483;28;20161;-85
2022/12/03 11:26:28;;;;;;;80.05;13.30;;;3.80;99.90;;;;;;5064960;28;20184;-85
2022/12/03 11:28:58;;;;;;;78.82;12.60;;;3.80;99.90;;;;;;5063064;28;20192;-85
2022/12/03 11:31:46;;;;;;;80.55;12.63;;;4.00;99.90;;;;;;5064647;28;20584;-85
2022/12/03 11:34:20;;;;;;;77.40;11.90;;;4.00;99.90;;;;;;5065161;28;20235;-85
2022/12/03 11:37:08;;;;;;;77.85;11.43;;;4.00;99.90;;;;;;5065361;28;20186;-85
2022/12/03 11:40:01;;;;;;;79.28;13.85;;;4.10;99.90;;;;;;5065014;28;20171;-85
2022/12/03 11:42:36;;;;;;;79.57;12.77;;;4.10;99.90;;;;;;5062947;28;20695;-84
2022/12/03 11:45:02;;;;;;;80.88;13.07;;;4.10;99.90;;;;;;5064400;28;20610;-85
2022/12/03 11:47:35;;;;;;;79.60;14.57;;;4.10;99.90;;;;;;5064827;28;20160;-84
2022/12/03 11:50:02;;;;;;;83.20;12.43;;;4.10;99.90;;;;;;5064025;28;20462;-85
2022/12/03 11:52:39;;;;;;;77.97;11.63;;;4.10;99.90;;;;;;5065213;28;20165;-85
2022/12/03 11:55:16;;;;;;;76.40;11.57;;;4.00;99.90;;;;;;5065720;28;20140;-85
2022/12/03 11:57:43;;;;;;;78.60;12.65;;;3.90;99.90;;;;;;5129104;22;20221;-85
2022/12/03 12:00:21;;;;;;;78.13;11.98;;;3.90;99.90;;;;;;5046833;28;20208;-85
2022/12/03 12:02:47;;;;;;;77.15;12.05;;;3.80;99.90;;;;;;5046554;28;20619;-85
2022/12/03 12:05:34;;;;;;;82.72;13.50;;;3.90;99.90;;;;;;5046159;28;20169;-84
2022/12/03 12:08:01;;;;;;;82.22;13.10;;;4.00;99.90;;;;;;5046053;28;20168;-84
2022/12/03 12:10:48;;;;;;;82.13;13.27;;;4.00;99.90;;;;;;5047659;28;20666;-85
2022/12/03 12:13:34;;;;;;;80.95;14.85;;;4.00;99.90;;;;;;5045241;28;20158;-85
2022/12/03 12:16:03;;;;;;;85.13;14.45;;;3.90;99.90;;;;;;5046874;28;20157;-85
2022/12/03 12:18:33;;;;;;;81.45;12.98;;;4.00;99.90;;;;;;5046602;28;20572;-85
2022/12/03 12:21:36;;;;;;;79.22;13.95;;;4.00;99.90;;;;;;5045756;28;20185;-85
2022/12/03 12:24:30;;;;;;;82.38;13.75;;;3.90;99.90;;;;;;5045521;28;20169;-85
2022/12/03 12:27:05;;;;;;;77.45;11.80;;;3.80;99.90;;;;;;5045939;28;20319;-85
2022/12/03 12:29:31;;;;;;;80.80;16.13;;;3.80;99.90;;;;;;5048100;28;20226;-85
2022/12/03 12:32:09;;;;;;;77.00;13.50;;;3.80;99.90;;;;;;5045654;28;20169;-84
2022/12/03 12:34:43;;;;;;;86.18;16.15;;;3.70;99.90;;;;;;5045625;28;20161;-84
2022/12/03 12:37:11;;;;;;;82.63;13.85;;;3.80;99.90;;;;;;5046741;28;20164;-85
2022/12/03 12:39:37;;;;;;;83.80;14.50;;;3.80;99.90;;;;;;5046688;28;20172;-85
2022/12/03 12:42:26;;;;;;;83.43;15.38;;;3.90;99.90;;;;;;5045826;28;20169;-85
2022/12/03 12:44:54;;;;;;;83.18;14.73;;;3.90;99.90;;;;;;5044895;28;20256;-84
2022/12/03 12:47:19;;;;;;;81.45;14.40;;;3.90;99.90;;;;;;5045529;28;20184;-85
2022/12/03 12:49:45;;;;;;;86.05;15.35;;;3.90;99.90;;;;;;5043439;28;20905;-85
2022/12/03 12:52:14;;;;;;;81.30;13.77;;;3.90;99.90;;;;;;5044550;28;20204;-85
2022/12/03 12:54:40;;;;;;;79.80;13.98;;;3.90;99.90;;;;;;5044289;28;20195;-85
2022/12/03 12:57:21;;;;;;;83.45;14.25;;;3.90;99.90;;;;;;5043464;28;20168;-85
2022/12/03 12:59:47;;;;;;;84.70;14.05;;;3.90;99.90;;;;;;5044968;28;20235;-85
2022/12/03 13:02:25;;;;;;;83.63;15.10;;;3.90;99.90;;;;;;5044140;28;20225;-85
2022/12/03 13:04:51;;;;;;;80.90;14.02;;;4.00;99.90;;;;;;5045390;28;20189;-84
2022/12/03 13:07:16;;;;;;;81.00;13.90;;;3.90;99.90;;;;;;5044940;28;20181;-84
2022/12/03 13:09:42;;;;;;;86.57;16.20;;;4.00;99.90;;;;;;5043133;28;20450;-85
2022/12/03 13:12:19;;;;;;;83.87;15.43;;;3.80;99.90;;;;;;5042918;28;20177;-85
2022/12/03 13:14:44;;;;;;;82.30;14.18;;;3.80;99.90;;;;;;5044525;28;20149;-85
2022/12/03 13:17:15;;;;;;;85.00;13.83;;;3.80;99.90;;;;;;5044545;28;20200;-85
2022/12/03 13:19:41;;;;;;;86.57;16.70;;;3.90;99.90;;;;;;5045127;28;20153;-85
2022/12/03 13:22:14;;;;;;;81.38;14.52;;;3.90;99.90;;;;;;5044950;28;20177;-85
2022/12/03 13:24:53;;;;;;;86.13;14.45;;;3.80;99.90;;;;;;5044520;28;20157;-85
2022/12/03 13:27:19;;;;;;;85.80;16.83;;;3.90;99.90;;;;;;5043927;28;20538;-85
2022/12/03 13:29:48;;;;;;;85.87;14.27;;;3.80;99.90;;;;;;5043077;28;20204;-85
2022/12/03 13:32:20;;;;;;;88.90;15.70;;;3.80;99.90;;;;;;5043912;28;20165;-85
2022/12/03 13:34:46;;;;;;;85.90;16.17;;;3.80;99.90;;;;;;5044555;28;20161;-85
2022/12/03 13:37:19;;;;;;;85.88;15.90;;;3.70;99.90;;;;;;5042733;28;20643;-85
2022/12/03 13:39:48;;;;;;;85.63;14.70;;;3.70;99.90;;;;;;5043842;28;20177;-85
2022/12/03 13:45:01;;;;;;;83.53;15.57;;;3.70;99.90;;;;;;5043856;28;20180;-85
2022/12/03 13:47:27;;;;;;;84.93;14.63;;;3.70;99.90;;;;;;5043137;28;20177;-85